Time;durP1;ratioP1;P1;durP2;ratioP2;P2;SDS_P1;SDS_P2;PMS_P1;PMS_P2;Temp;Humidity;BMP_temperature;BMP_pressure;BME280_temperature;BME280_humidity;BME280_pressure;Samples;Min_cycle;Max_cycle;Signal;HPM_P1;HPM_P2
2023/01/11 00:00:30;;;;;;;18.40;6.13;;;;;;;8.20;100.00;100560.72;5054748;28;20044;-76
2023/01/11 00:02:56;;;;;;;18.85;6.20;;;;;;;8.18;100.00;100548.41;5054679;28;20033;-75
2023/01/11 00:05:22;;;;;;;19.70;6.45;;;;;;;8.18;100.00;100543.13;5054798;28;20108;-73
2023/01/11 00:07:47;;;;;;;19.08;6.13;;;;;;;8.14;100.00;100544.88;5054791;28;20102;-73
2023/01/11 00:10:13;;;;;;;19.33;6.22;;;;;;;8.15;100.00;100548.38;5054667;28;20029;-76
2023/01/11 00:12:38;;;;;;;19.00;6.05;;;;;;;8.16;100.00;100539.63;5053899;28;20021;-73
2023/01/11 00:15:03;;;;;;;19.17;6.32;;;;;;;8.13;100.00;100552.75;5050570;28;20037;-73
2023/01/11 00:17:29;;;;;;;19.48;6.05;;;;;;;8.14;100.00;100543.97;5054476;28;20017;-74
2023/01/11 00:19:54;;;;;;;19.20;6.15;;;;;;;8.19;100.00;100537.00;5054417;28;20025;-73
2023/01/11 00:22:20;;;;;;;18.83;5.80;;;;;;;8.20;100.00;100536.16;5054662;28;20408;-73
2023/01/11 00:24:45;;;;;;;17.25;5.60;;;;;;;8.24;100.00;100527.38;5054349;28;20383;-73
2023/01/11 00:27:10;;;;;;;19.38;5.93;;;;;;;8.23;100.00;100532.63;5054506;28;20178;-73
2023/01/11 00:29:36;;;;;;;16.92;5.07;;;;;;;8.25;100.00;100536.19;5054291;28;20028;-73
2023/01/11 00:32:01;;;;;;;17.40;5.70;;;;;;;8.24;100.00;100529.16;5054241;28;20036;-72
2023/01/11 00:34:26;;;;;;;17.05;5.20;;;;;;;8.22;100.00;100525.63;5054394;28;20464;-76
2023/01/11 00:36:52;;;;;;;15.90;5.20;;;;;;;8.22;100.00;100528.25;5054112;28;20576;-73
2023/01/11 00:39:17;;;;;;;18.55;5.85;;;;;;;8.21;100.00;100522.09;5053955;28;20487;-73
2023/01/11 00:49:57;;;;;;;16.90;4.93;;;;;;;8.41;100.00;100521.41;5054391;28;20107;-74
2023/01/11 00:52:22;;;;;;;15.88;5.00;;;;;;;8.41;100.00;100514.38;5053931;28;20465;-73
2023/01/11 00:54:48;;;;;;;16.25;4.88;;;;;;;8.42;100.00;100521.41;5053620;28;20029;-73
2023/01/11 00:57:14;;;;;;;17.65;5.07;;;;;;;8.45;100.00;100507.44;5054148;28;20045;-78
2023/01/11 00:59:40;;;;;;;16.80;5.40;;;;;;;8.51;100.00;100513.59;5053525;28;20049;-73
2023/01/11 01:02:06;;;;;;;17.27;5.57;;;;;;;8.49;100.00;100506.56;5053709;28;20033;-74
2023/01/11 01:04:31;;;;;;;16.77;5.28;;;;;;;8.53;100.00;100514.50;5053771;28;20546;-74
2023/01/11 01:06:57;;;;;;;17.08;5.40;;;;;;;8.59;100.00;100512.78;5053781;28;20031;-76
2023/01/11 01:09:22;;;;;;;16.70;5.25;;;;;;;8.60;100.00;100504.88;5053950;28;20112;-73
2023/01/11 01:11:47;;;;;;;18.70;5.57;;;;;;;8.58;100.00;100508.38;5053449;28;20033;-73
2023/01/11 01:14:27;;;;;;;18.98;6.13;;;;;;;8.53;100.00;100510.97;5053631;28;20068;-73
2023/01/11 01:17:14;;;;;;;18.30;6.00;;;;;;;8.56;100.00;100511.00;5053288;28;20102;-75
2023/01/11 01:19:40;;;;;;;18.60;6.28;;;;;;;8.60;100.00;100510.16;5050102;28;20029;-73
2023/01/11 01:22:06;;;;;;;19.23;6.10;;;;;;;8.62;100.00;100507.53;5053554;28;20029;-73
2023/01/11 01:24:32;;;;;;;17.23;5.85;;;;;;;8.70;100.00;100516.38;5052292;28;20365;-74
2023/01/11 01:26:58;;;;;;;17.45;6.00;;;;;;;8.67;100.00;100514.59;5053158;28;20029;-79
2023/01/11 01:29:24;;;;;;;17.88;6.35;;;;;;;8.68;100.00;100516.38;5053333;28;20043;-79
2023/01/11 01:31:49;;;;;;;19.20;6.85;;;;;;;8.71;100.00;100528.69;5053125;28;20103;-78
2023/01/11 01:34:15;;;;;;;19.13;6.10;;;;;;;8.76;100.00;100518.19;5052970;28;20127;-74
2023/01/11 01:36:40;;;;;;;18.63;6.63;;;;;;;8.80;100.00;100514.69;5053170;28;20116;-74
2023/01/11 01:39:06;;;;;;;18.48;6.38;;;;;;;8.84;100.00;100519.09;5052954;28;20033;-73
2023/01/11 01:41:33;;;;;;;18.80;6.32;;;;;;;8.89;100.00;100520.00;5052871;28;20021;-74
2023/01/11 01:44:01;;;;;;;18.55;6.22;;;;;;;8.87;100.00;100519.13;5053083;28;20033;-74
2023/01/11 01:46:29;;;;;;;18.10;6.30;;;;;;;8.89;100.00;100514.75;5052791;28;20468;-74
2023/01/11 01:49:10;;;;;;;18.00;6.25;;;;;;;8.90;100.00;100527.06;5052809;28;20032;-74
2023/01/11 01:51:38;;;;;;;18.55;6.63;;;;;;;8.93;100.00;100510.34;5048847;28;20476;-74
2023/01/11 01:54:07;;;;;;;17.45;6.40;;;;;;;9.01;100.00;100513.94;5052955;28;20064;-74
2023/01/11 01:56:56;;;;;;;18.08;6.38;;;;;;;8.99;100.00;100513.03;5052547;28;20036;-74
2023/01/11 01:59:25;;;;;;;17.33;6.28;;;;;;;9.00;100.00;100518.31;5050431;28;20041;-74
2023/01/11 02:01:51;;;;;;;17.65;6.20;;;;;;;9.01;100.00;100500.75;5052941;28;20379;-73
2023/01/11 02:04:41;;;;;;;18.23;6.43;;;;;;;9.06;100.00;100501.66;5052838;28;20025;-73
2023/01/11 02:07:15;;;;;;;18.42;6.50;;;;;;;9.04;100.00;100504.28;5048837;28;20502;-73
2023/01/11 02:09:43;;;;;;;19.33;6.72;;;;;;;9.06;100.00;100507.81;5049481;28;20033;-74
2023/01/11 02:12:10;;;;;;;18.63;6.55;;;;;;;9.05;100.00;100503.41;5052559;28;20036;-74
2023/01/11 02:14:38;;;;;;;18.45;6.38;;;;;;;9.12;100.00;100503.44;5048437;28;20029;-74
2023/01/11 02:17:04;;;;;;;18.50;6.18;;;;;;;9.11;100.00;100504.31;5052623;28;20075;-74
2023/01/11 02:20:03;;;;;;;19.52;6.40;;;;;;;9.21;100.00;100517.53;5052398;28;20029;-74
2023/01/11 02:23:09;;;;;;;17.60;5.90;;;;;;;9.21;100.00;100506.13;5051718;28;20535;-74
2023/01/11 02:25:34;;;;;;;17.58;6.00;;;;;;;9.24;100.00;100509.63;5052311;28;20025;-75
2023/01/11 02:28:43;;;;;;;16.92;5.72;;;;;;;9.25;100.00;100514.06;5052771;28;20472;-74
2023/01/11 02:31:42;;;;;;;16.48;5.68;;;;;;;9.24;100.00;100499.09;4960347;28;20043;-74
2023/01/11 02:34:11;;;;;;;17.27;5.47;;;;;;;9.26;100.00;100499.09;5048549;28;20036;-73
2023/01/11 02:37:01;;;;;;;16.60;5.20;;;;;;;9.27;100.00;100485.03;5051708;28;20051;-74
2023/01/11 02:40:00;;;;;;;16.00;5.03;;;;;;;9.30;100.00;100495.59;5055073;28;20060;-74
2023/01/11 02:45:45;;;;;;;15.10;5.18;;;;;;;9.34;100.00;100486.81;5054723;28;20040;-74
2023/01/11 02:48:20;;;;;;;15.93;4.88;;;;;;;9.33;100.00;100485.06;5053098;28;20479;-75
2023/01/11 02:50:45;;;;;;;15.75;4.70;;;;;;;9.40;100.00;100478.94;5056106;28;20017;-74
2023/01/11 02:53:29;;;;;;;14.90;4.75;;;;;;;9.47;100.00;100486.88;5056205;28;20203;-75
2023/01/11 02:55:58;;;;;;;15.80;4.90;;;;;;;9.39;100.00;100492.13;5056001;28;20116;-75
2023/01/11 02:58:27;;;;;;;18.25;5.13;;;;;;;9.39;100.00;100482.47;5056179;28;20025;-74
2023/01/11 03:00:54;;;;;;;15.82;5.10;;;;;;;9.40;100.00;100485.97;5055846;28;20041;-74
2023/01/11 03:03:23;;;;;;;15.57;4.85;;;;;;;9.45;100.00;100488.63;5055872;28;20028;-74
2023/01/11 03:05:54;;;;;;;16.45;4.80;;;;;;;9.43;100.00;100486.84;5055840;28;20103;-76
2023/01/11 03:08:22;;;;;;;14.70;4.60;;;;;;;9.49;100.00;100491.25;5056056;28;20095;-77
2023/01/11 03:10:59;;;;;;;14.52;4.50;;;;;;;9.52;100.00;100485.13;5055759;28;20025;-74
2023/01/11 03:13:44;;;;;;;13.93;4.38;;;;;;;9.52;100.00;100477.22;5055799;28;20531;-75
2023/01/11 03:16:18;;;;;;;14.70;4.50;;;;;;;9.51;100.00;100476.34;5052154;28;20057;-75
2023/01/11 03:19:05;;;;;;;13.43;4.20;;;;;;;9.54;100.00;100478.97;5052661;28;20033;-74
2023/01/11 03:21:39;;;;;;;12.90;4.00;;;;;;;9.55;100.00;100485.13;5055647;28;20029;-75
2023/01/11 03:24:27;;;;;;;11.48;3.95;;;;;;;9.56;100.00;100481.63;5055728;28;20068;-75
2023/01/11 03:27:07;;;;;;;10.60;3.50;;;;;;;9.62;100.00;100480.75;5053729;28;20602;-77
2023/01/11 03:29:44;;;;;;;11.23;3.83;;;;;;;9.61;100.00;100474.63;5055608;28;20472;-75
2023/01/11 03:32:38;;;;;;;9.30;3.80;;;;;;;9.63;100.00;100483.41;5052134;28;20021;-75
2023/01/11 03:35:26;;;;;;;10.93;3.80;;;;;;;9.62;100.00;100492.19;5055207;28;20025;-76
2023/01/11 03:38:01;;;;;;;12.40;3.90;;;;;;;9.64;100.00;100485.19;5052975;28;20041;-75
2023/01/11 03:40:29;;;;;;;11.95;3.90;;;;;;;9.60;100.00;100488.69;5055355;28;20105;-75
2023/01/11 03:43:10;;;;;;;12.90;3.95;;;;;;;9.60;100.00;100488.69;5055184;28;20025;-74
2023/01/11 03:45:44;;;;;;;10.82;3.92;;;;;;;9.58;100.00;100486.03;5051096;28;20024;-76
2023/01/11 03:48:22;;;;;;;12.38;3.85;;;;;;;9.60;100.00;100480.75;5050372;28;20055;-74
2023/01/11 03:50:50;;;;;;;8.98;3.50;;;;;;;9.63;100.00;100478.13;5052568;28;20033;-75
2023/01/11 03:53:18;;;;;;;9.98;3.50;;;;;;;9.62;100.00;100480.75;5055147;28;20017;-75
2023/01/11 03:55:47;;;;;;;11.27;3.83;;;;;;;9.60;100.00;100473.72;5054899;28;20029;-75
2023/01/11 03:58:13;;;;;;;12.25;3.78;;;;;;;9.63;100.00;100482.53;5055202;28;20388;-75
2023/01/11 04:00:39;;;;;;;12.00;3.70;;;;;;;9.60;100.00;100486.91;5054871;28;20055;-75
2023/01/11 04:03:05;;;;;;;10.25;3.70;;;;;;;9.59;100.00;100479.00;5054802;28;20498;-75
2023/01/11 04:05:31;;;;;;;11.18;3.90;;;;;;;9.65;100.00;100479.00;5054759;28;20025;-75
2023/01/11 04:07:56;;;;;;;13.35;4.30;;;;;;;9.73;100.00;100495.75;5054851;28;20039;-75
2023/01/11 04:10:22;;;;;;;13.07;4.90;;;;;;;9.72;100.00;100480.78;5054764;28;20104;-75
2023/01/11 04:12:47;;;;;;;15.70;5.25;;;;;;;9.73;100.00;100485.19;5054691;28;20105;-75
2023/01/11 04:15:13;;;;;;;14.43;5.00;;;;;;;9.72;100.00;100487.81;5054819;28;20464;-75
2023/01/11 04:17:40;;;;;;;16.98;5.60;;;;;;;9.73;100.00;100501.03;5054585;28;20498;-75
2023/01/11 04:20:10;;;;;;;18.48;6.30;;;;;;;9.73;100.00;100511.59;5036640;28;20029;-75
2023/01/11 04:22:35;;;;;;;17.55;6.18;;;;;;;9.76;100.00;100508.94;5037750;28;20032;-75
2023/01/11 04:25:01;;;;;;;17.15;5.75;;;;;;;9.74;100.00;100497.50;5054455;28;20427;-75
2023/01/11 04:27:26;;;;;;;18.55;6.45;;;;;;;9.81;100.00;100511.59;5054414;28;20021;-75
2023/01/11 04:29:51;;;;;;;18.17;6.35;;;;;;;9.83;100.00;100494.00;5054622;28;20044;-75
2023/01/11 04:32:17;;;;;;;18.40;6.68;;;;;;;9.79;100.00;100504.56;5054347;28;20025;-75
2023/01/11 04:34:42;;;;;;;17.90;6.20;;;;;;;9.81;100.00;100508.06;5054422;28;20033;-75
2023/01/11 04:37:08;;;;;;;19.63;6.30;;;;;;;9.84;100.00;100516.00;5054230;28;20120;-76
2023/01/11 04:39:33;;;;;;;17.65;6.07;;;;;;;9.85;100.00;100518.66;5054017;28;20479;-75
2023/01/11 04:42:17;;;;;;;16.00;5.40;;;;;;;9.84;100.00;100521.28;5054346;28;20447;-75
2023/01/11 04:44:43;;;;;;;18.02;5.32;;;;;;;9.83;100.00;100524.78;5036020;28;20029;-75
2023/01/11 04:47:08;;;;;;;16.75;4.75;;;;;;;9.83;100.00;100530.97;5054075;28;20395;-75
2023/01/11 04:49:34;;;;;;;16.10;4.90;;;;;;;9.88;100.00;100530.97;5036012;28;20033;-75
2023/01/11 04:51:59;;;;;;;16.48;4.97;;;;;;;9.86;100.00;100533.63;5054157;28;20029;-75
2023/01/11 04:54:24;;;;;;;16.50;5.28;;;;;;;9.85;100.00;100526.56;5036336;28;20465;-74
2023/01/11 04:56:50;;;;;;;17.48;5.55;;;;;;;9.82;100.00;100537.13;5036015;28;20458;-78
2023/01/11 04:59:15;;;;;;;16.13;5.00;;;;;;;9.83;100.00;100533.63;5053848;28;20025;-78
2023/01/11 05:01:40;;;;;;;14.10;4.38;;;;;;;9.81;100.00;100526.56;5054137;28;20037;-75
2023/01/11 05:04:06;;;;;;;13.93;4.40;;;;;;;9.80;100.00;100532.72;5035914;28;20385;-75
2023/01/11 05:06:31;;;;;;;12.90;4.38;;;;;;;9.77;100.00;100529.19;5053823;28;20064;-74
2023/01/11 05:08:57;;;;;;;16.25;4.32;;;;;;;9.76;100.00;100524.78;5053672;28;20021;-75
2023/01/11 05:11:22;;;;;;;12.95;4.30;;;;;;;9.77;100.00;100528.28;5019509;28;20025;-74
2023/01/11 05:13:47;;;;;;;14.80;4.63;;;;;;;9.72;100.00;100525.66;5053510;28;20040;-75
2023/01/11 05:16:22;;;;;;;15.45;4.90;;;;;;;9.76;100.00;100540.63;5053398;28;20048;-76
2023/01/11 05:18:53;;;;;;;15.75;5.20;;;;;;;9.75;100.00;100538.84;5053449;28;20491;-75
2023/01/11 05:21:20;;;;;;;17.33;5.40;;;;;;;9.73;100.00;100535.34;5053583;28;20111;-75
2023/01/11 05:23:46;;;;;;;18.35;6.00;;;;;;;9.74;100.00;100545.03;5053589;28;20856;-74
2023/01/11 05:26:16;;;;;;;19.55;6.90;;;;;;;9.74;100.00;100555.59;5053322;28;20057;-76
2023/01/11 05:28:42;;;;;;;19.23;7.25;;;;;;;9.75;100.00;100554.69;5049979;28;20035;-75
2023/01/11 05:31:07;;;;;;;21.25;8.35;;;;;;;9.72;100.00;100557.31;5049177;28;20103;-79
2023/01/11 05:33:33;;;;;;;21.17;8.88;;;;;;;9.71;100.00;100566.13;5053449;28;20438;-74
2023/01/11 05:36:00;;;;;;;21.48;9.48;;;;;;;9.66;100.00;100552.03;5053250;28;20090;-79
2023/01/11 05:38:27;;;;;;;22.63;9.75;;;;;;;9.69;100.00;100557.31;5053035;28;20033;-79
2023/01/11 05:40:57;;;;;;;22.73;9.82;;;;;;;9.66;100.00;100552.03;5053010;28;20021;-74
2023/01/11 05:43:22;;;;;;;23.13;9.73;;;;;;;9.64;100.00;100559.06;5053224;28;20430;-73
2023/01/11 05:45:48;;;;;;;22.98;10.50;;;;;;;9.64;100.00;100564.34;5053253;28;20029;-74
2023/01/11 05:48:13;;;;;;;22.60;10.00;;;;;;;9.60;100.00;100562.56;5053260;28;20021;-74
2023/01/11 05:50:38;;;;;;;23.70;11.02;;;;;;;9.58;100.00;100559.94;5053114;28;20073;-74
2023/01/11 05:53:04;;;;;;;25.70;10.95;;;;;;;9.56;100.00;100560.78;5052932;28;20064;-74
2023/01/11 05:55:29;;;;;;;24.40;11.30;;;;;;;9.58;100.00;100561.66;5035137;28;20037;-75
2023/01/11 05:57:55;;;;;;;23.70;10.73;;;;;;;9.68;100.00;100575.78;5053289;28;20553;-74
2023/01/11 06:00:20;;;;;;;23.90;10.32;;;;;;;9.68;100.00;100570.50;5052537;28;20060;-74
2023/01/11 06:02:46;;;;;;;23.25;7.57;;;;;;;9.42;100.00;100572.16;5052722;28;20029;-74
2023/01/11 06:05:11;;;;;;;23.20;7.95;;;;;;;9.28;100.00;100586.19;5035466;28;20120;-74
2023/01/11 06:07:37;;;;;;;22.30;6.70;;;;;;;9.19;100.00;100587.00;5052634;28;20061;-74
2023/01/11 06:10:02;;;;;;;23.67;6.95;;;;;;;9.13;100.00;100582.56;5052196;28;20071;-74
2023/01/11 06:12:27;;;;;;;24.98;6.15;;;;;;;9.06;100.00;100593.94;5052661;28;20064;-74
2023/01/11 06:14:53;;;;;;;22.45;6.15;;;;;;;8.96;100.00;100576.31;5034623;28;20522;-74
2023/01/11 06:17:18;;;;;;;24.23;6.20;;;;;;;9.00;100.00;100586.88;5052989;28;20052;-74
2023/01/11 06:19:43;;;;;;;25.00;6.30;;;;;;;8.90;100.00;100600.88;5052481;28;20040;-74
2023/01/11 06:22:09;;;;;;;25.27;5.40;;;;;;;8.79;100.00;100602.53;5052547;28;20029;-74
2023/01/11 06:24:34;;;;;;;23.88;5.43;;;;;;;8.78;100.00;100608.66;5052892;28;20423;-74
2023/01/11 06:26:59;;;;;;;24.92;5.30;;;;;;;8.67;100.00;100605.97;5052598;28;20389;-74
2023/01/11 06:29:25;;;;;;;24.13;5.00;;;;;;;8.70;100.00;100598.06;5052402;28;20489;-74
2023/01/11 06:31:50;;;;;;;23.40;5.30;;;;;;;8.65;100.00;100602.41;5052606;28;20503;-74
2023/01/11 06:34:15;;;;;;;25.88;5.00;;;;;;;8.62;100.00;100618.19;5052366;28;20029;-74
2023/01/11 06:36:41;;;;;;;24.20;5.28;;;;;;;8.61;100.00;100614.69;5052303;28;20052;-73
2023/01/11 06:39:06;;;;;;;26.10;5.35;;;;;;;8.59;100.00;100632.25;5052362;28;20029;-74
2023/01/11 06:41:31;;;;;;;27.02;5.55;;;;;;;8.54;100.00;100644.47;5052362;28;20396;-74
2023/01/11 06:43:57;;;;;;;25.05;5.15;;;;;;;8.54;100.00;100641.84;5052480;28;20029;-76
2023/01/11 06:46:22;;;;;;;24.98;4.90;;;;;;;8.53;100.00;100642.72;5032056;28;20060;-82
2023/01/11 06:48:48;;;;;;;26.60;4.85;;;;;;;8.53;100.00;100629.53;5057413;28;20025;-81
2023/01/11 06:51:14;;;;;;;26.42;5.32;;;;;;;8.44;100.00;100643.50;5039830;28;20043;-80
2023/01/11 06:53:41;;;;;;;26.92;5.47;;;;;;;8.45;100.00;100668.13;5060125;28;20036;-77
2023/01/11 06:56:10;;;;;;;27.00;5.18;;;;;;;8.51;100.00;100670.81;5058018;28;20071;-76
2023/01/11 06:58:36;;;;;;;26.63;5.30;;;;;;;8.47;100.00;100675.13;5056713;28;20118;-80
2023/01/11 07:01:02;;;;;;;27.45;5.60;;;;;;;8.48;100.00;100666.38;5060381;28;20520;-78
2023/01/11 07:03:27;;;;;;;27.75;5.30;;;;;;;8.48;100.00;100668.16;5056735;28;20033;-77
2023/01/11 07:05:55;;;;;;;26.60;5.43;;;;;;;8.45;100.00;100661.09;5049539;28;20017;-77
2023/01/11 07:08:21;;;;;;;29.83;5.75;;;;;;;8.42;100.00;100660.13;5052970;28;20031;-77
2023/01/11 07:10:47;;;;;;;23.98;5.10;;;;;;;8.42;100.00;100654.84;5051213;28;20037;-77
2023/01/11 07:13:15;;;;;;;31.27;6.07;;;;;;;8.34;100.00;100678.50;5052004;28;20388;-79
2023/01/11 07:15:42;;;;;;;27.85;5.47;;;;;;;8.33;100.00;100682.88;5051124;28;20036;-76
2023/01/11 07:18:07;;;;;;;29.48;5.45;;;;;;;8.34;100.00;100697.84;5053090;28;20037;-80
2023/01/11 07:20:32;;;;;;;28.30;5.43;;;;;;;8.33;100.00;100701.31;5051457;28;20033;-79
2023/01/11 07:22:59;;;;;;;30.02;6.03;;;;;;;8.24;100.00;100703.81;5054231;28;20067;-78
2023/01/11 07:25:26;;;;;;;27.95;5.80;;;;;;;8.25;100.00;100718.78;5056407;28;20065;-80
2023/01/11 07:27:59;;;;;;;23.60;4.72;;;;;;;8.26;100.00;100717.03;5051731;28;20025;-79
2023/01/11 07:30:27;;;;;;;30.77;5.40;;;;;;;8.20;100.00;100720.47;5052828;28;20441;-80
2023/01/11 07:32:53;;;;;;;27.60;5.43;;;;;;;8.15;100.00;100719.53;5054716;28;20082;-82
2023/01/11 07:35:19;;;;;;;28.70;5.20;;;;;;;8.09;100.00;100714.19;5055001;28;20032;-82
2023/01/11 07:37:44;;;;;;;26.05;4.95;;;;;;;8.02;100.00;100716.75;5058200;28;20032;-78
2023/01/11 07:40:11;;;;;;;29.42;5.40;;;;;;;7.97;100.00;100726.31;5057231;28;20040;-79
2023/01/11 07:45:20;;;;;;;26.80;5.25;;;;;;;7.88;100.00;100734.13;5053736;28;20087;-79
2023/01/11 07:47:49;;;;;;;27.45;4.93;;;;;;;7.85;100.00;100747.25;5053420;28;20472;-79
2023/01/11 07:50:15;;;;;;;29.08;5.38;;;;;;;7.86;100.00;100746.34;5054862;28;20037;-79
2023/01/11 07:52:48;;;;;;;27.05;5.13;;;;;;;7.84;100.00;100759.50;5054457;28;20021;-79
2023/01/11 07:55:14;;;;;;;32.78;5.63;;;;;;;7.76;100.00;100765.50;5059042;28;20439;-74
2023/01/11 07:57:40;;;;;;;28.42;5.53;;;;;;;7.70;100.00;100762.78;5055793;28;20025;-75
2023/01/11 08:00:06;;;;;;;25.13;4.88;;;;;;;7.65;100.00;100771.50;5054084;28;20063;-73
2023/01/11 08:02:31;;;;;;;26.70;5.30;;;;;;;7.66;100.00;100773.28;5054488;28;20025;-80
2023/01/11 08:04:57;;;;;;;28.00;5.22;;;;;;;7.62;100.00;100771.44;5037581;28;20170;-87
2023/01/11 08:07:22;;;;;;;27.83;5.25;;;;;;;7.59;100.00;100771.41;5036252;28;20098;-82
2023/01/11 08:09:48;;;;;;;25.33;4.80;;;;;;;7.49;100.00;100777.41;5054322;28;20409;-80
2023/01/11 08:14:57;;;;;;;27.40;5.35;;;;;;;7.51;100.00;100778.28;5053985;28;20388;-72
2023/01/11 08:17:22;;;;;;;29.65;5.45;;;;;;;7.49;100.00;100799.31;5050672;28;20033;-84
2023/01/11 08:19:47;;;;;;;30.13;5.28;;;;;;;7.50;100.00;100802.84;5053374;28;20076;-79
2023/01/11 08:22:13;;;;;;;26.00;5.10;;;;;;;7.49;100.00;100812.47;5052376;28;20044;-84
2023/01/11 08:24:38;;;;;;;28.30;5.22;;;;;;;7.42;100.00;100815.84;5053680;28;20021;-80
2023/01/11 08:27:04;;;;;;;31.25;5.70;;;;;;;7.40;100.00;100827.22;5052277;28;20482;-84
2023/01/11 08:29:29;;;;;;;29.15;5.35;;;;;;;7.38;100.00;100839.44;5051983;28;20064;-83
2023/01/11 08:31:55;;;;;;;30.00;5.68;;;;;;;7.38;100.00;100839.44;5053569;28;20139;-74
2023/01/11 08:34:21;;;;;;;27.58;5.60;;;;;;;7.37;100.00;100848.19;5052794;28;20388;-74
2023/01/11 08:36:46;;;;;;;27.52;5.13;;;;;;;7.36;100.00;100849.06;5053945;28;20029;-81
2023/01/11 08:39:12;;;;;;;29.75;5.90;;;;;;;7.37;100.00;100848.19;5053134;28;20086;-73
2023/01/11 08:41:39;;;;;;;27.88;5.53;;;;;;;7.33;100.00;100847.25;5057084;28;20037;-77
2023/01/11 08:44:05;;;;;;;26.65;5.00;;;;;;;7.33;100.00;100849.88;5055119;28;20383;-73
2023/01/11 08:46:32;;;;;;;25.35;5.25;;;;;;;7.31;100.00;100849.88;5053440;28;20025;-75
2023/01/11 08:49:01;;;;;;;26.45;4.85;;;;;;;7.30;100.00;100858.59;5054028;28;20039;-73
2023/01/11 08:51:26;;;;;;;26.33;5.30;;;;;;;7.24;100.00;100861.13;5056914;28;20578;-74
2023/01/11 08:53:52;;;;;;;26.30;4.65;;;;;;;7.20;100.00;100861.94;5057343;28;20116;-73
2023/01/11 08:56:17;;;;;;;27.08;5.30;;;;;;;7.21;100.00;100868.97;5052802;28;20037;-74
2023/01/11 08:58:42;;;;;;;26.67;4.68;;;;;;;7.21;100.00;100894.34;5053005;28;20044;-77
2023/01/11 09:01:08;;;;;;;27.75;4.80;;;;;;;7.20;100.00;100882.97;5053613;28;20144;-73
2023/01/11 09:03:34;;;;;;;25.52;5.10;;;;;;;7.19;100.00;100886.44;5049706;28;20032;-73
2023/01/11 09:06:00;;;;;;;24.58;4.75;;;;;;;7.18;100.00;100899.56;5053977;28;20108;-73
2023/01/11 09:08:26;;;;;;;25.35;4.95;;;;;;;7.15;100.00;100906.53;5053640;28;20100;-73
2023/01/11 09:10:52;;;;;;;27.85;4.53;;;;;;;7.24;100.00;100902.34;5053905;28;20391;-74
2023/01/11 09:13:18;;;;;;;31.10;5.30;;;;;;;7.15;100.00;100897.78;5053711;28;20029;-77
2023/01/11 09:15:45;;;;;;;23.27;4.47;;;;;;;7.12;100.00;100905.56;5053370;28;20037;-75
2023/01/11 09:18:13;;;;;;;27.73;4.65;;;;;;;7.11;100.00;100888.94;5053412;28;20025;-73
2023/01/11 09:20:39;;;;;;;29.08;5.20;;;;;;;7.11;100.00;100898.56;5053842;28;20051;-75
2023/01/11 09:23:04;;;;;;;23.98;4.72;;;;;;;7.08;100.00;100898.50;5053432;28;20577;-73
2023/01/11 09:25:30;;;;;;;28.02;4.93;;;;;;;7.02;100.00;100903.63;5053401;28;20033;-77
2023/01/11 09:27:55;;;;;;;26.42;4.60;;;;;;;6.94;100.00;100904.38;5053491;28;20027;-73
2023/01/11 09:30:22;;;;;;;26.48;5.15;;;;;;;6.92;100.00;100908.72;5053315;28;20082;-74
2023/01/11 09:32:48;;;;;;;25.38;4.63;;;;;;;6.96;100.00;100915.81;5053320;28;20028;-79
2023/01/11 09:35:15;;;;;;;27.95;5.38;;;;;;;7.00;100.00;100921.13;5053386;28;20155;-75
2023/01/11 09:37:44;;;;;;;25.67;4.78;;;;;;;7.00;100.00;100922.00;5053158;28;20052;-74
2023/01/11 09:40:22;;;;;;;27.33;4.88;;;;;;;7.05;100.00;100929.97;5053082;28;20052;-76
2023/01/11 09:42:51;;;;;;;26.60;4.60;;;;;;;7.19;100.00;100939.03;5053540;28;20090;-80
2023/01/11 09:45:23;;;;;;;27.65;4.40;;;;;;;7.33;100.00;100936.69;5051207;28;20029;-77
2023/01/11 09:48:02;;;;;;;28.03;5.07;;;;;;;7.38;100.00;100935.00;5053951;28;20421;-73
2023/01/11 09:50:31;;;;;;;26.67;5.38;;;;;;;7.39;100.00;100936.78;5050157;28;20105;-82
2023/01/11 09:53:03;;;;;;;28.67;4.88;;;;;;;7.43;100.00;100943.00;5053960;28;20036;-81
2023/01/11 09:55:51;;;;;;;24.85;4.32;;;;;;;7.47;100.00;100944.81;5051934;28;20040;-85
2023/01/11 09:58:49;;;;;;;24.98;4.70;;;;;;;7.41;100.00;100956.13;5056119;28;20433;-77
2023/01/11 10:01:30;;;;;;;26.35;4.65;;;;;;;7.72;100.00;100954.06;5030294;28;20049;-80
2023/01/11 10:04:31;;;;;;;24.55;4.53;;;;;;;8.00;100.00;100951.91;5032452;28;20103;-78
2023/01/11 10:07:03;;;;;;;25.33;4.72;;;;;;;8.19;100.00;100951.31;5034118;28;20061;-80
2023/01/11 10:09:35;;;;;;;23.60;4.07;;;;;;;8.44;100.00;100953.47;5032095;28;20037;-79
2023/01/11 10:12:30;;;;;;;23.92;4.38;;;;;;;8.64;100.00;100954.66;5031433;28;20061;-80
2023/01/11 10:15:27;;;;;;;23.63;4.82;;;;;;;8.81;100.00;100959.28;5033779;28;20033;-79
2023/01/11 10:18:12;;;;;;;22.75;3.92;;;;;;;8.79;100.00;100953.09;5031888;28;20033;-79
2023/01/11 10:20:46;;;;;;;22.98;4.40;;;;;;;8.87;100.00;100951.47;5030858;28;20031;-84
2023/01/11 10:23:17;;;;;;;25.88;4.50;;;;;;;9.07;100.00;100955.22;5033547;28;20025;-80
2023/01/11 10:25:50;;;;;;;23.02;4.32;;;;;;;9.10;100.00;100956.13;5030128;28;20032;-78
2023/01/11 10:28:44;;;;;;;21.55;4.30;;;;;;;9.29;100.00;100952.84;5028417;28;20028;-87
2023/01/11 10:31:28;;;;;;;22.17;4.05;;;;;;;9.39;100.00;100962.63;5029766;28;20029;-78
2023/01/11 10:34:40;;;;;;;23.50;4.50;;;;;;;9.15;100.00;100949.16;5028973;28;20025;-81
2023/01/11 10:38:06;;;;;;;23.10;4.90;;;;;;;9.28;100.00;100959.00;5029887;28;20446;-78
2023/01/11 10:43:02;;;;;;;24.77;5.13;;;;;;;9.59;100.00;100965.47;5030688;28;20544;-87
2023/01/11 10:45:43;;;;;;;23.98;4.97;;;;;;;9.76;100.00;100970.06;5030140;28;20029;-78
2023/01/11 10:48:28;;;;;;;24.83;4.78;;;;;;;9.98;100.00;100971.13;5031461;28;20033;-78
2023/01/11 10:50:59;;;;;;;24.85;4.80;;;;;;;10.26;100.00;100968.72;5029239;28;20037;-78
2023/01/11 10:53:31;;;;;;;24.02;4.63;;;;;;;10.53;100.00;100953.94;5032584;28;20025;-78
2023/01/11 10:56:07;;;;;;;21.73;4.40;;;;;;;10.80;100.00;100955.88;5030069;28;20032;-78
2023/01/11 10:58:37;;;;;;;23.00;4.53;;;;;;;11.21;100.00;100965.75;5033515;28;20380;-79
2023/01/11 11:01:33;;;;;;;21.33;4.55;;;;;;;11.74;100.00;100950.88;5050731;28;20098;-78
2023/01/11 11:04:43;;;;;;;22.05;4.35;;;;;;;12.17;100.00;100963.28;5053069;28;20538;-79
2023/01/11 11:07:23;;;;;;;23.88;4.70;;;;;;;12.45;100.00;100957.97;4993383;28;20049;-78
2023/01/11 11:10:24;;;;;;;22.88;4.20;;;;;;;12.37;100.00;100963.28;5052761;28;20045;-77
2023/01/11 11:13:20;;;;;;;22.45;4.18;;;;;;;12.24;100.00;100959.75;5006398;28;20494;-79
2023/01/11 11:15:56;;;;;;;19.98;3.80;;;;;;;12.13;100.00;100961.53;5057460;28;20028;-79
2023/01/11 11:18:22;;;;;;;22.38;4.20;;;;;;;12.25;100.00;100965.97;5054988;28;20052;-79
2023/01/11 11:20:48;;;;;;;22.88;4.38;;;;;;;12.27;100.00;100969.47;5054939;28;20463;-79
2023/01/11 11:23:16;;;;;;;22.40;4.28;;;;;;;11.95;100.00;100978.31;5061213;28;20064;-79
2023/01/11 11:25:47;;;;;;;21.77;3.90;;;;;;;12.15;100.00;100959.78;5040943;28;20079;-78
2023/01/11 11:28:13;;;;;;;22.73;4.00;;;;;;;12.28;100.00;100963.31;5058473;28;20029;-76
2023/01/11 11:30:42;;;;;;;22.83;4.00;;;;;;;12.28;100.00;100958.00;5055025;28;20503;-76
2023/01/11 11:33:34;;;;;;;21.30;3.92;;;;;;;12.26;100.00;100962.41;5054713;28;20107;-78
2023/01/11 11:36:04;;;;;;;22.08;4.47;;;;;;;12.20;100.00;100961.53;5053973;28;20071;-75
2023/01/11 11:38:33;;;;;;;22.70;4.65;;;;;;;12.47;100.00;100982.72;5055078;28;20328;-78
2023/01/11 11:41:09;;;;;;;21.88;4.03;;;;;;;12.80;100.00;100981.78;5037468;28;20460;-76
2023/01/11 11:43:43;;;;;;;22.45;4.65;;;;;;;13.36;100.00;100984.25;5055723;28;20056;-76
2023/01/11 11:46:14;;;;;;;22.23;4.50;;;;;;;13.58;100.00;100983.22;5051249;28;20121;-79
2023/01/11 11:48:41;;;;;;;21.80;4.20;;;;;;;13.94;100.00;100989.19;5051408;28;20080;-76
2023/01/11 11:51:20;;;;;;;23.80;4.50;;;;;;;14.03;100.00;100987.38;5055289;28;20090;-77